createdAt,value
2023-03-15T00:00:41.925Z,55.84
2023-03-15T00:02:46.586Z,55.84
2023-03-15T00:04:52.643Z,55.73
2023-03-15T00:06:57.270Z,55.87
2023-03-15T00:09:03.141Z,55.76
2023-03-15T00:11:08.136Z,55.80
2023-03-15T00:13:14.010Z,56.06
2023-03-15T00:15:18.885Z,55.80
2023-03-15T00:17:23.585Z,55.70
2023-03-15T00:19:28.291Z,55.04
2023-03-15T00:21:33.451Z,54.87
2023-03-15T00:23:38.116Z,54.96
2023-03-15T00:25:45.595Z,55.04
2023-03-15T00:27:50.275Z,54.78
2023-03-15T00:29:54.926Z,54.75
2023-03-15T00:31:59.576Z,54.77
2023-03-15T00:34:04.246Z,54.78
2023-03-15T00:36:11.463Z,54.63
2023-03-15T00:38:19.117Z,54.72
2023-03-15T00:40:24.234Z,54.89
2023-03-15T00:42:30.057Z,54.75
2023-03-15T00:44:34.948Z,54.69
2023-03-15T00:46:39.720Z,54.64
2023-03-15T00:48:47.074Z,54.12
2023-03-15T00:50:51.736Z,54.42
2023-03-15T00:52:56.534Z,54.38
2023-03-15T00:55:10.030Z,53.68
2023-03-15T00:57:14.802Z,53.79
2023-03-15T00:59:19.494Z,53.80
2023-03-15T01:01:26.560Z,53.51
2023-03-15T01:03:31.196Z,53.56
2023-03-15T01:05:36.001Z,53.30
2023-03-15T01:07:40.673Z,53.16
2023-03-15T01:09:48.373Z,53.23
2023-03-15T01:11:53.249Z,53.04
2023-03-15T01:13:59.228Z,52.85
2023-03-15T01:16:04.891Z,53.32
2023-03-15T01:18:09.596Z,52.92
2023-03-15T01:20:15.986Z,52.89
2023-03-15T01:22:22.279Z,52.93
2023-03-15T01:24:27.343Z,52.77
2023-03-15T01:26:33.119Z,52.88
2023-03-15T01:28:37.889Z,53.89
2023-03-15T01:30:49.809Z,55.68
2023-03-15T01:32:54.595Z,59.95
2023-03-15T01:34:59.473Z,61.45
2023-03-15T01:37:07.007Z,63.79
2023-03-15T01:39:17.124Z,65.68
2023-03-15T01:41:23.834Z,66.02
2023-03-15T01:43:33.791Z,67.73
2023-03-15T01:46:21.679Z,68.00
2023-03-15T01:48:28.935Z,68.24
2023-03-15T01:50:34.107Z,68.46
2023-03-15T01:52:41.419Z,68.70
2023-03-15T01:54:56.620Z,68.97
2023-03-15T01:57:06.282Z,69.15
2023-03-15T01:59:16.267Z,69.28
2023-03-15T02:01:22.183Z,69.82
2023-03-15T02:03:34.831Z,70.00
2023-03-15T02:05:43.909Z,69.78
2023-03-15T02:07:50.889Z,70.04
2023-03-15T02:10:02.297Z,70.46
2023-03-15T02:12:11.975Z,70.68
2023-03-15T02:14:17.482Z,70.83
2023-03-15T02:16:24.188Z,71.32
2023-03-15T02:18:37.188Z,71.19
2023-03-15T02:20:48.678Z,70.80
2023-03-15T02:22:56.730Z,70.70
2023-03-15T02:25:08.436Z,70.29
2023-03-15T02:27:14.049Z,70.51
2023-03-15T02:29:19.576Z,70.25
2023-03-15T02:31:25.734Z,70.04
2023-03-15T02:33:34.854Z,69.95
2023-03-15T02:35:39.508Z,69.97
2023-03-15T02:37:44.200Z,70.39
2023-03-15T02:39:51.778Z,70.16
2023-03-15T02:41:58.734Z,70.18
2023-03-15T02:44:10.766Z,70.61
2023-03-15T02:46:16.124Z,70.94
2023-03-15T02:48:21.612Z,70.48
2023-03-15T02:50:26.401Z,70.77
2023-03-15T02:52:31.241Z,70.82
2023-03-15T02:54:36.325Z,70.54
2023-03-15T02:56:41.014Z,70.47
2023-03-15T02:58:46.102Z,70.22
2023-03-15T03:00:52.159Z,69.79
2023-03-15T03:02:57.359Z,69.82
2023-03-15T03:05:03.304Z,69.68
2023-03-15T03:07:08.236Z,69.61
2023-03-15T03:09:24.439Z,69.78
2023-03-15T03:11:29.438Z,70.07
2023-03-15T03:13:34.477Z,70.02
2023-03-15T03:15:40.930Z,70.15
2023-03-15T03:17:46.651Z,70.01
2023-03-15T03:19:51.377Z,70.17
2023-03-15T03:21:57.405Z,70.12
2023-03-15T03:24:02.096Z,70.56
2023-03-15T03:26:14.440Z,70.71
2023-03-15T03:28:19.173Z,70.67
2023-03-15T03:30:24.330Z,70.53
2023-03-15T03:32:29.559Z,70.29
2023-03-15T03:34:34.616Z,70.35
2023-03-15T03:36:39.236Z,70.58
2023-03-15T03:38:45.787Z,70.47
2023-03-15T03:40:50.734Z,70.30
2023-03-15T03:42:55.382Z,69.99
2023-03-15T03:45:01.125Z,69.96
2023-03-15T03:47:12.069Z,69.25
2023-03-15T03:49:17.007Z,68.75
2023-03-15T03:51:21.806Z,67.80
2023-03-15T03:53:28.481Z,66.40
2023-03-15T03:55:33.560Z,65.47
2023-03-15T03:57:38.149Z,65.00
2023-03-15T03:59:42.998Z,64.16
2023-03-15T04:01:50.420Z,63.63
2023-03-15T04:03:55.100Z,63.11
2023-03-15T04:06:01.564Z,62.22
2023-03-15T04:08:07.302Z,61.64
2023-03-15T04:10:17.242Z,62.03
2023-03-15T04:12:24.909Z,61.45
2023-03-15T04:14:31.634Z,61.12
2023-03-15T04:16:36.584Z,61.01
2023-03-15T04:18:44.073Z,61.02
2023-03-15T04:20:49.077Z,60.73
2023-03-15T04:22:55.843Z,60.56
2023-03-15T04:25:23.227Z,60.32
2023-03-15T04:27:33.407Z,59.94
2023-03-15T04:29:55.539Z,59.98
2023-03-15T04:32:00.172Z,60.07
2023-03-15T04:34:19.206Z,59.76
2023-03-15T04:36:49.695Z,59.04
2023-03-15T04:39:14.877Z,59.03
2023-03-15T04:41:35.946Z,58.45
2023-03-15T04:44:00.085Z,58.88
2023-03-15T04:46:34.315Z,58.62
2023-03-15T04:49:01.767Z,58.85
2023-03-15T04:51:25.075Z,58.40
2023-03-15T04:54:02.385Z,58.86
2023-03-15T04:56:20.425Z,58.52
2023-03-15T04:58:57.198Z,58.44
2023-03-15T05:01:14.714Z,58.29
2023-03-15T05:03:50.066Z,57.87
2023-03-15T05:06:18.030Z,57.65
2023-03-15T05:08:45.589Z,57.95
2023-03-15T05:11:02.345Z,57.95
2023-03-15T05:13:21.152Z,57.96
2023-03-15T05:15:44.280Z,57.74
2023-03-15T05:18:00.087Z,57.88
2023-03-15T05:20:12.732Z,57.52
2023-03-15T05:22:46.647Z,57.36
2023-03-15T05:25:11.168Z,57.50
2023-03-15T05:27:35.812Z,57.32
2023-03-15T05:30:01.608Z,57.50
2023-03-15T05:32:21.783Z,57.34
2023-03-15T05:34:46.708Z,57.61
2023-03-15T05:37:18.196Z,57.56
2023-03-15T05:39:42.767Z,56.99
2023-03-15T05:42:06.549Z,56.98
2023-03-15T05:44:31.455Z,56.57
2023-03-15T05:47:08.778Z,56.23
2023-03-15T05:49:25.538Z,55.98
2023-03-15T05:51:50.471Z,55.59
2023-03-15T05:54:24.931Z,55.71
2023-03-15T05:56:41.841Z,55.65
2023-03-15T05:59:04.876Z,55.42
2023-03-15T06:01:22.440Z,55.46
2023-03-15T06:03:45.786Z,55.30
2023-03-15T06:05:54.353Z,55.18
2023-03-15T06:08:06.836Z,54.75
2023-03-15T06:10:13.867Z,54.64
2023-03-15T06:12:18.566Z,54.48
2023-03-15T06:14:24.699Z,53.49
2023-03-15T06:16:30.750Z,53.30
2023-03-15T06:18:36.119Z,53.36
2023-03-15T06:20:40.902Z,52.90
2023-03-15T06:22:48.276Z,53.38
2023-03-15T06:25:10.237Z,53.17
2023-03-15T06:27:14.892Z,53.00
2023-03-15T06:29:21.172Z,53.01
2023-03-15T06:31:26.014Z,53.03
2023-03-15T06:33:36.917Z,52.76
2023-03-15T06:35:41.638Z,52.58
2023-03-15T06:37:46.614Z,52.72
2023-03-15T06:39:51.625Z,52.61
2023-03-15T06:41:56.487Z,52.52
2023-03-15T06:44:01.133Z,52.19
2023-03-15T06:46:06.253Z,51.87
2023-03-15T06:48:10.965Z,51.45
2023-03-15T06:50:15.760Z,52.07
2023-03-15T06:52:20.826Z,51.24
2023-03-15T06:54:25.507Z,51.44
2023-03-15T06:56:30.245Z,50.96
2023-03-15T06:58:37.735Z,51.26
2023-03-15T07:00:42.685Z,51.31
2023-03-15T07:02:47.357Z,51.03
2023-03-15T07:04:52.210Z,50.70
2023-03-15T07:06:56.915Z,50.17
2023-03-15T07:09:01.873Z,49.82
2023-03-15T07:11:06.699Z,49.69
2023-03-15T07:13:11.337Z,49.53
2023-03-15T07:15:17.304Z,49.58
2023-03-15T07:17:22.281Z,50.04
2023-03-15T07:19:30.441Z,49.88
2023-03-15T07:21:35.054Z,49.82
2023-03-15T07:23:39.794Z,49.60
2023-03-15T07:25:54.448Z,49.20
2023-03-15T07:27:59.874Z,48.57
2023-03-15T07:30:04.994Z,48.91
2023-03-15T07:32:10.231Z,48.79
2023-03-15T07:34:14.835Z,48.90
2023-03-15T07:36:19.461Z,48.57
2023-03-15T07:38:25.825Z,48.61
2023-03-15T07:40:30.602Z,48.84
2023-03-15T07:42:35.325Z,48.83
2023-03-15T07:44:39.928Z,48.35
2023-03-15T07:46:44.588Z,48.19
2023-03-15T07:48:49.236Z,48.16
2023-03-15T07:50:53.896Z,48.09
2023-03-15T07:52:58.530Z,48.20
2023-03-15T07:55:03.282Z,48.31
2023-03-15T07:57:08.701Z,48.12
2023-03-15T07:59:13.688Z,48.16
2023-03-15T08:01:18.434Z,47.76
2023-03-15T08:03:23.152Z,48.06
2023-03-15T08:05:29.169Z,47.87
2023-03-15T08:07:33.965Z,48.04
2023-03-15T08:09:38.601Z,48.31
2023-03-15T08:11:44.653Z,48.23
2023-03-15T08:13:50.334Z,48.29
2023-03-15T08:15:55.092Z,48.49
2023-03-15T08:17:59.808Z,48.37
2023-03-15T08:20:05.345Z,48.28
2023-03-15T08:22:10.935Z,48.53
2023-03-15T08:24:15.989Z,48.38
2023-03-15T08:26:20.673Z,48.15
2023-03-15T08:28:25.334Z,48.04
2023-03-15T08:30:30.177Z,47.99
2023-03-15T08:32:34.844Z,47.85
2023-03-15T08:34:39.540Z,47.77
2023-03-15T08:36:46.182Z,47.27
2023-03-15T08:38:51.136Z,47.54
2023-03-15T08:40:58.604Z,47.24
2023-03-15T08:43:03.615Z,47.64
2023-03-15T08:45:10.517Z,47.44
2023-03-15T08:47:15.234Z,47.41
2023-03-15T08:49:19.930Z,47.40
2023-03-15T08:51:24.865Z,46.47
2023-03-15T08:53:29.627Z,46.45
2023-03-15T08:55:34.421Z,46.69
2023-03-15T08:57:39.336Z,46.50
2023-03-15T08:59:43.980Z,46.34
2023-03-15T09:01:48.700Z,46.02
2023-03-15T09:03:53.402Z,45.41
2023-03-15T09:06:00.545Z,45.26
2023-03-15T09:08:05.967Z,45.34
2023-03-15T09:10:12.998Z,45.53
2023-03-15T09:12:18.220Z,45.21
2023-03-15T09:14:22.968Z,44.72
2023-03-15T09:16:27.728Z,44.80
2023-03-15T09:18:32.450Z,45.17
2023-03-15T09:20:37.146Z,44.61
2023-03-15T09:22:41.961Z,44.47
2023-03-15T09:24:46.581Z,44.29
2023-03-15T09:26:51.314Z,44.18
2023-03-15T09:28:56.030Z,44.51
2023-03-15T09:31:03.452Z,44.59
2023-03-15T09:33:09.008Z,44.70
2023-03-15T09:35:15.385Z,44.46
2023-03-15T09:37:20.175Z,44.45
2023-03-15T09:39:24.994Z,44.45
2023-03-15T09:41:41.379Z,43.80
2023-03-15T09:44:02.333Z,43.57
2023-03-15T09:46:18.117Z,43.09
2023-03-15T09:48:29.819Z,42.96
2023-03-15T09:50:37.869Z,42.48
2023-03-15T09:52:47.073Z,41.65
2023-03-15T09:54:57.584Z,42.21
2023-03-15T09:57:04.862Z,42.38
2023-03-15T09:59:12.388Z,42.51
2023-03-15T10:01:19.161Z,42.46
2023-03-15T10:03:30.711Z,42.43
2023-03-15T10:05:40.378Z,42.47
2023-03-15T10:07:45.159Z,42.26
2023-03-15T10:09:49.864Z,41.76
2023-03-15T10:12:02.354Z,42.06
2023-03-15T10:14:26.494Z,42.08
2023-03-15T10:16:39.258Z,41.97
2023-03-15T10:19:01.079Z,41.69
2023-03-15T10:21:13.189Z,41.86
2023-03-15T10:23:26.179Z,41.61
2023-03-15T10:25:32.679Z,41.26
2023-03-15T10:27:42.466Z,40.84
2023-03-15T10:29:49.072Z,40.55
2023-03-15T10:31:54.945Z,40.76
2023-03-15T10:34:00.104Z,41.11
2023-03-15T10:36:14.121Z,40.86
2023-03-15T10:38:20.904Z,40.57
2023-03-15T10:40:44.032Z,40.94
2023-03-15T10:42:49.022Z,40.83
2023-03-15T10:44:53.676Z,41.27
2023-03-15T10:47:21.475Z,41.13
2023-03-15T10:49:34.970Z,41.00
2023-03-15T10:51:43.064Z,40.73
2023-03-15T10:53:55.565Z,40.48
2023-03-15T10:56:04.582Z,40.56
2023-03-15T10:58:23.368Z,40.25
2023-03-15T11:00:33.165Z,39.92
2023-03-15T11:02:37.987Z,39.86
2023-03-15T11:04:47.485Z,39.98
2023-03-15T11:07:02.042Z,38.91
2023-03-15T11:09:14.999Z,38.26
2023-03-15T11:11:19.713Z,38.36
2023-03-15T11:13:26.101Z,38.00
2023-03-15T11:15:30.764Z,37.63
2023-03-15T11:17:42.318Z,37.74
2023-03-15T11:19:53.974Z,37.80
2023-03-15T11:22:01.394Z,37.80
2023-03-15T11:24:07.603Z,37.52
2023-03-15T11:26:29.519Z,37.97
2023-03-15T11:28:48.667Z,38.10
2023-03-15T11:30:54.768Z,38.13
2023-03-15T11:33:02.241Z,38.55
2023-03-15T11:35:12.469Z,38.20
2023-03-15T11:37:20.626Z,38.13
2023-03-15T11:39:34.424Z,37.46
2023-03-15T11:41:44.247Z,37.78
2023-03-15T11:43:57.716Z,37.60
2023-03-15T11:46:10.775Z,36.78
2023-03-15T11:48:26.709Z,36.46
2023-03-15T11:50:31.484Z,36.53
2023-03-15T11:52:36.282Z,35.92
2023-03-15T11:54:40.962Z,36.04
2023-03-15T11:56:55.449Z,36.72
2023-03-15T11:59:08.630Z,37.26
2023-03-15T12:01:26.174Z,37.22
2023-03-15T12:03:47.380Z,36.74
2023-03-15T12:05:53.283Z,36.13
2023-03-15T12:08:16.514Z,36.95
2023-03-15T12:10:32.296Z,37.26
2023-03-15T12:12:46.961Z,37.07
2023-03-15T12:15:03.857Z,37.17
2023-03-15T12:17:42.011Z,36.84
2023-03-15T12:19:46.827Z,36.36
2023-03-15T12:21:54.356Z,37.09
2023-03-15T12:24:03.294Z,36.58
2023-03-15T12:26:12.582Z,36.59
2023-03-15T12:28:25.742Z,36.75
2023-03-15T12:30:38.727Z,36.63
2023-03-15T12:32:53.412Z,36.42
2023-03-15T12:35:16.111Z,36.63
2023-03-15T12:37:23.888Z,36.71
2023-03-15T12:39:41.515Z,36.74
2023-03-15T12:41:48.465Z,35.72
2023-03-15T12:43:53.090Z,35.97
2023-03-15T12:45:57.757Z,36.18
2023-03-15T12:48:31.515Z,36.07
2023-03-15T12:50:49.818Z,35.44
2023-03-15T12:52:59.538Z,35.39
2023-03-15T12:55:11.904Z,35.16
2023-03-15T12:57:21.729Z,35.42
2023-03-15T12:59:38.328Z,35.00
2023-03-15T13:01:43.571Z,35.45
2023-03-15T13:03:54.125Z,35.27
2023-03-15T13:06:05.484Z,35.21
2023-03-15T13:08:19.842Z,34.94
2023-03-15T13:11:05.963Z,34.99
2023-03-15T13:13:25.559Z,34.25
2023-03-15T13:15:36.274Z,34.26
2023-03-15T13:17:47.563Z,34.52
2023-03-15T13:20:06.303Z,34.43
2023-03-15T13:22:21.569Z,34.45
2023-03-15T13:24:35.324Z,34.50
2023-03-15T13:26:49.916Z,34.45
2023-03-15T13:28:59.591Z,34.37
2023-03-15T13:31:12.910Z,34.57
2023-03-15T13:33:23.056Z,34.21
2023-03-15T13:35:27.770Z,34.29
2023-03-15T13:37:32.547Z,33.86
2023-03-15T13:39:37.276Z,33.24
2023-03-15T13:41:42.045Z,33.77
2023-03-15T13:43:47.829Z,33.59
2023-03-15T13:45:52.541Z,34.01
2023-03-15T13:47:57.240Z,34.02
2023-03-15T13:50:05.287Z,33.54
2023-03-15T13:52:12.604Z,33.43
2023-03-15T13:54:20.923Z,33.13
2023-03-15T13:56:43.562Z,33.39
2023-03-15T13:58:53.360Z,33.20
2023-03-15T14:01:04.443Z,33.29
2023-03-15T14:03:13.361Z,33.16
2023-03-15T14:05:20.408Z,33.37
2023-03-15T14:07:30.096Z,33.24
2023-03-15T14:09:34.802Z,33.33
2023-03-15T14:11:40.618Z,33.18
2023-03-15T14:13:53.207Z,33.12
2023-03-15T14:16:03.388Z,32.86
2023-03-15T14:18:18.400Z,32.20
2023-03-15T14:20:28.575Z,31.96
2023-03-15T14:22:33.351Z,32.10
2023-03-15T14:24:39.916Z,31.77
2023-03-15T14:26:50.500Z,31.82
2023-03-15T14:29:00.172Z,31.87
2023-03-15T14:31:07.007Z,31.15
2023-03-15T14:33:26.950Z,31.58
2023-03-15T14:35:41.014Z,31.42
2023-03-15T14:37:46.381Z,31.44
2023-03-15T14:39:51.276Z,31.14
2023-03-15T14:41:56.680Z,30.82
2023-03-15T14:44:02.373Z,30.59
2023-03-15T14:46:10.363Z,30.83
2023-03-15T14:48:18.813Z,31.08
2023-03-15T14:50:25.858Z,31.49
2023-03-15T14:52:30.574Z,31.32
2023-03-15T14:54:35.446Z,31.70
2023-03-15T14:56:41.266Z,31.86
2023-03-15T14:58:46.735Z,31.83
2023-03-15T15:00:53.284Z,32.11
2023-03-15T15:02:58.963Z,31.74
2023-03-15T15:05:09.860Z,31.89
2023-03-15T15:07:15.389Z,32.11
2023-03-15T15:09:22.305Z,32.33
2023-03-15T15:11:27.364Z,32.30
2023-03-15T15:13:32.682Z,32.29
2023-03-15T15:15:53.905Z,31.77
2023-03-15T15:17:59.958Z,31.81
2023-03-15T15:20:05.390Z,32.17
2023-03-15T15:22:11.294Z,32.04
2023-03-15T15:24:20.033Z,31.99
2023-03-15T15:26:27.141Z,32.30
2023-03-15T15:28:36.540Z,32.75
2023-03-15T15:30:42.157Z,33.13
2023-03-15T15:32:47.449Z,33.40
2023-03-15T15:34:52.228Z,33.38
2023-03-15T15:36:57.705Z,33.09
2023-03-15T15:39:04.993Z,33.67
2023-03-15T15:41:18.762Z,33.57
2023-03-15T15:43:27.299Z,33.42
2023-03-15T15:45:33.123Z,33.84
2023-03-15T15:47:37.882Z,33.96
2023-03-15T15:49:42.544Z,33.77
2023-03-15T15:51:49.118Z,33.98
2023-03-15T15:53:54.434Z,34.26
2023-03-15T15:55:59.282Z,34.24
2023-03-15T15:58:05.261Z,34.50
2023-03-15T16:00:15.314Z,34.46
2023-03-15T16:02:21.001Z,33.63
2023-03-15T16:04:26.420Z,33.69
2023-03-15T16:06:32.215Z,33.42
2023-03-15T16:08:41.411Z,33.71
2023-03-15T16:10:46.156Z,33.70
2023-03-15T16:12:51.913Z,33.82
2023-03-15T16:14:56.928Z,34.18
2023-03-15T16:17:01.825Z,34.41
2023-03-15T16:19:07.286Z,34.63
2023-03-15T16:21:16.873Z,34.95
2023-03-15T16:23:25.714Z,35.03
2023-03-15T16:25:33.603Z,35.22
2023-03-15T16:27:39.706Z,35.27
2023-03-15T16:29:48.172Z,35.43
2023-03-15T16:32:06.561Z,35.81
2023-03-15T16:34:20.225Z,35.85
2023-03-15T16:36:26.547Z,36.17
2023-03-15T16:38:33.473Z,36.20
2023-03-15T16:40:43.805Z,36.03
2023-03-15T16:42:55.017Z,36.14
2023-03-15T16:45:00.782Z,36.44
2023-03-15T16:47:07.330Z,36.50
2023-03-15T16:49:15.551Z,36.55
2023-03-15T16:51:22.154Z,36.93
2023-03-15T16:53:28.500Z,38.29
2023-03-15T16:55:35.629Z,38.79
2023-03-15T16:57:41.948Z,40.20
2023-03-15T16:59:48.346Z,40.38
2023-03-15T17:01:56.199Z,40.99
2023-03-15T17:04:03.606Z,40.88
2023-03-15T17:06:18.439Z,41.00
2023-03-15T17:08:24.314Z,40.09
2023-03-15T17:10:34.651Z,39.65
2023-03-15T17:12:44.236Z,39.49
2023-03-15T17:14:51.590Z,39.96
2023-03-15T17:16:58.263Z,40.35
2023-03-15T17:19:15.036Z,41.58
2023-03-15T17:21:26.942Z,44.59
2023-03-15T17:23:36.552Z,45.61
2023-03-15T17:25:42.901Z,46.27
2023-03-15T17:27:50.400Z,46.69
2023-03-15T17:29:57.961Z,47.66
2023-03-15T17:32:04.293Z,47.92
2023-03-15T17:34:10.544Z,48.76
2023-03-15T17:36:21.437Z,49.88
2023-03-15T17:38:31.096Z,51.59
2023-03-15T17:40:37.949Z,51.59
2023-03-15T17:42:46.511Z,52.28
2023-03-15T17:44:53.377Z,53.62
2023-03-15T17:46:58.534Z,54.11
2023-03-15T17:49:05.576Z,53.66
2023-03-15T17:51:24.375Z,54.03
2023-03-15T17:53:32.180Z,54.13
2023-03-15T17:55:41.895Z,53.78
2023-03-15T17:57:54.601Z,54.67
2023-03-15T18:00:02.490Z,54.79
2023-03-15T18:02:17.554Z,54.94
2023-03-15T18:04:24.426Z,55.32
2023-03-15T18:06:31.122Z,55.31
2023-03-15T18:08:42.049Z,55.63
2023-03-15T18:10:50.023Z,55.53
2023-03-15T18:12:56.782Z,56.20
2023-03-15T18:15:04.614Z,56.16
2023-03-15T18:17:12.605Z,56.70
2023-03-15T18:19:18.874Z,56.62
2023-03-15T18:21:28.138Z,57.08
2023-03-15T18:23:41.215Z,57.39
2023-03-15T18:25:48.564Z,57.12
2023-03-15T18:27:55.558Z,57.23
2023-03-15T18:30:04.139Z,57.18
2023-03-15T18:32:10.433Z,56.80
2023-03-15T18:34:17.664Z,56.39
2023-03-15T18:36:24.813Z,56.47
2023-03-15T18:38:36.006Z,56.34
2023-03-15T18:40:42.909Z,56.12
2023-03-15T18:42:53.288Z,56.27
2023-03-15T18:45:00.135Z,55.86
2023-03-15T18:47:08.558Z,55.93
2023-03-15T18:49:19.017Z,56.22
2023-03-15T18:51:29.330Z,55.87
2023-03-15T18:53:39.863Z,55.85
2023-03-15T18:55:47.034Z,55.65
2023-03-15T18:57:55.278Z,55.75
2023-03-15T19:00:04.083Z,55.39
2023-03-15T19:02:11.989Z,54.96
2023-03-15T19:04:20.477Z,54.63
2023-03-15T19:06:28.650Z,54.07
2023-03-15T19:08:37.748Z,53.70
2023-03-15T19:10:44.998Z,53.59
2023-03-15T19:12:52.521Z,53.37
2023-03-15T19:15:01.041Z,53.57
2023-03-15T19:17:07.762Z,53.07
2023-03-15T19:19:16.674Z,53.28
2023-03-15T19:21:23.877Z,53.13
2023-03-15T19:23:31.636Z,53.24
2023-03-15T19:25:40.307Z,53.10
2023-03-15T19:27:47.265Z,53.10
2023-03-15T19:29:54.025Z,53.17
2023-03-15T19:32:04.087Z,53.11
2023-03-15T19:34:11.629Z,53.09
2023-03-15T19:36:18.799Z,53.16
2023-03-15T19:38:26.523Z,52.78
2023-03-15T19:40:38.204Z,52.84
2023-03-15T19:42:45.894Z,52.90
2023-03-15T19:44:55.902Z,52.66
2023-03-15T19:47:04.352Z,52.90
2023-03-15T19:49:11.696Z,52.75
2023-03-15T19:51:18.639Z,52.93
2023-03-15T19:53:27.017Z,52.79
2023-03-15T19:55:42.613Z,52.85
2023-03-15T19:57:51.313Z,52.71
2023-03-15T19:59:58.364Z,52.85
2023-03-15T20:02:07.540Z,52.91
2023-03-15T20:04:15.816Z,52.84
2023-03-15T20:06:23.890Z,52.92
2023-03-15T20:08:32.496Z,52.87
2023-03-15T20:10:50.238Z,53.12
2023-03-15T20:12:57.502Z,53.12
2023-03-15T20:15:05.006Z,53.03
2023-03-15T20:17:12.815Z,52.88
2023-03-15T20:19:21.420Z,52.91
2023-03-15T20:21:31.008Z,52.95
2023-03-15T20:23:38.566Z,52.85
2023-03-15T20:25:46.101Z,52.58
2023-03-15T20:27:53.473Z,52.16
2023-03-15T20:30:00.867Z,52.13
2023-03-15T20:32:08.899Z,52.22
2023-03-15T20:34:22.962Z,51.81
2023-03-15T20:36:33.507Z,51.93
2023-03-15T20:38:40.748Z,52.12
2023-03-15T20:40:55.089Z,52.00
2023-03-15T20:43:01.854Z,51.95
2023-03-15T20:45:18.272Z,52.24
2023-03-15T20:47:25.494Z,52.36
2023-03-15T20:49:35.662Z,52.10
2023-03-15T20:51:43.227Z,52.34
2023-03-15T20:53:51.119Z,52.51
2023-03-15T20:55:58.262Z,52.51
2023-03-15T20:58:04.426Z,52.81
2023-03-15T21:00:15.721Z,52.64
2023-03-15T21:02:22.699Z,52.84
2023-03-15T21:04:29.311Z,53.07
2023-03-15T21:06:38.436Z,53.22
2023-03-15T21:08:46.293Z,53.13
2023-03-15T21:10:53.312Z,53.20
2023-03-15T21:13:02.529Z,53.59
2023-03-15T21:15:10.959Z,53.69
2023-03-15T21:17:19.819Z,53.93
2023-03-15T21:19:25.998Z,53.86
2023-03-15T21:21:34.703Z,53.97
2023-03-15T21:23:40.363Z,54.51
2023-03-15T21:25:52.977Z,54.31
2023-03-15T21:27:59.348Z,54.16
2023-03-15T21:30:06.821Z,54.49
2023-03-15T21:32:11.983Z,54.67
2023-03-15T21:34:17.007Z,54.18
2023-03-15T21:36:22.865Z,54.29
2023-03-15T21:38:29.254Z,54.45
2023-03-15T21:40:34.956Z,54.34
2023-03-15T21:42:40.051Z,54.57
2023-03-15T21:44:46.245Z,54.71
2023-03-15T21:46:51.514Z,54.56
2023-03-15T21:48:57.656Z,54.31
2023-03-15T21:51:03.809Z,54.44
2023-03-15T21:53:09.257Z,54.66
2023-03-15T21:55:14.945Z,54.63
2023-03-15T21:57:20.312Z,55.12
2023-03-15T21:59:25.718Z,55.16
2023-03-15T22:01:31.446Z,55.29
2023-03-15T22:03:37.246Z,55.28
2023-03-15T22:05:42.304Z,54.98
2023-03-15T22:07:46.997Z,55.50
2023-03-15T22:09:51.632Z,55.68
2023-03-15T22:11:56.291Z,56.28
2023-03-15T22:14:00.917Z,56.09
2023-03-15T22:16:06.105Z,56.18
2023-03-15T22:18:10.828Z,56.53
2023-03-15T22:20:15.960Z,56.34
2023-03-15T22:22:20.590Z,56.34
2023-03-15T22:24:25.268Z,56.63
2023-03-15T22:26:30.004Z,56.58
2023-03-15T22:28:34.706Z,57.02
2023-03-15T22:30:39.719Z,57.38
2023-03-15T22:32:44.681Z,57.64
2023-03-15T22:34:49.398Z,57.53
2023-03-15T22:36:54.112Z,58.08
2023-03-15T22:38:58.762Z,58.22
2023-03-15T22:41:05.388Z,58.26
2023-03-15T22:43:10.068Z,58.40
2023-03-15T22:45:14.924Z,58.37
2023-03-15T22:47:19.514Z,59.35
2023-03-15T22:49:24.134Z,60.19
2023-03-15T22:51:29.139Z,61.16
2023-03-15T22:53:34.144Z,61.32
2023-03-15T22:55:38.783Z,62.14
2023-03-15T22:57:43.507Z,62.17
2023-03-15T22:59:48.113Z,62.28
2023-03-15T23:01:52.796Z,62.37
2023-03-15T23:03:57.421Z,63.18
2023-03-15T23:06:02.109Z,63.53
2023-03-15T23:08:07.349Z,64.05
2023-03-15T23:10:13.613Z,64.12
2023-03-15T23:12:24.280Z,64.02
2023-03-15T23:14:32.199Z,64.69
2023-03-15T23:16:36.825Z,64.55
2023-03-15T23:18:41.515Z,65.49
2023-03-15T23:20:46.155Z,65.25
2023-03-15T23:22:51.108Z,65.25
2023-03-15T23:24:55.708Z,65.71
2023-03-15T23:27:00.412Z,65.74
2023-03-15T23:29:06.267Z,66.07
2023-03-15T23:31:11.059Z,65.96
2023-03-15T23:33:15.989Z,66.22
2023-03-15T23:35:21.877Z,66.56
2023-03-15T23:37:26.581Z,66.10
2023-03-15T23:39:31.240Z,66.48
2023-03-15T23:41:36.242Z,66.21
2023-03-15T23:43:40.967Z,66.72
2023-03-15T23:45:45.629Z,67.61
2023-03-15T23:47:50.246Z,68.27
2023-03-15T23:49:54.850Z,67.95
2023-03-15T23:51:59.837Z,68.84
2023-03-15T23:54:04.494Z,68.76
2023-03-15T23:56:09.487Z,69.07
2023-03-15T23:58:14.182Z,68.60
